Aviation Digital Data Service (ADDS)

Output produced by METARs form (1206 UTC 24 February 2018)
found at http://www.aviationweather.gov/adds/metars/
 
BKPR 241200Z 02015KT 9999 FEW020 BKN040 02/M02 Q1010 NOSIG RMK 17010095
TAF BKPR 241130Z 2412/2512 01016KT 9999 SCT015 BKN040 
     TEMPO 2412/2424 5000 -SN BR BKN015 
     TEMPO 2500/2512 3000 SN